Tawakoni's Hourly Summary for Monday, April 17, 2017
Hour Temp
(f)
RH
(%)
Solar Rad.
(MJ/m2)
Rainfall
(in)
Wind
(mph)
4/17/2017 12:00 AM 70 80 0 0 4.61
4/17/2017 1:00 AM 69 82 0 0 5.2
4/17/2017 2:00 AM 69 86 0 0 6.48
4/17/2017 3:00 AM 69 87 0 0 5.99
4/17/2017 4:00 AM 69 88 0 0 3.42
4/17/2017 5:00 AM 68 89 0 0 4.82
4/17/2017 6:00 AM 68 88 0 0 6.27
4/17/2017 7:00 AM 67 92 0 0 4.66
4/17/2017 8:00 AM 67 93 0.12 0 6.37
4/17/2017 9:00 AM 67 91 0.41 0 6.05
4/17/2017 10:00 AM 68 86 0.66 0 4.97
4/17/2017 11:00 AM 70 81 0.78 0 4.9
4/17/2017 12:00 PM 69 81 0.48 0.02 4.71
4/17/2017 1:00 PM 65 86 1.07 0 7.21
4/17/2017 2:00 PM 68 71 2.46 0 7.87
4/17/2017 3:00 PM 69 71 0.95 0 6.17
4/17/2017 4:00 PM 69 71 1.36 0 5.85
4/17/2017 5:00 PM 69 72 0.74 0 4.01
4/17/2017 6:00 PM 67 76 0.21 0 4.18
4/17/2017 7:00 PM 64 79 0.08 0 3.8
4/17/2017 8:00 PM 63 80 0.02 0 2.71
4/17/2017 9:00 PM 62 90 0.01 0.01 5.34
4/17/2017 10:00 PM 62 91 0.01 0 4.39
4/17/2017 11:00 PM 62 93 0.02 0 2.05
Data Summary 67 83 9.38 0.03 5.08